Saint Brieux, Canada
Current Conditions -  °F | °C
As of 11:00 PM on Saturday 25 Oct 2014 (Local Time) from CYPA Reporting Station
Broken Clouds Broken Clouds  
Wind Chill: 29°   Ceiling: 10000
Heat Index: 36°   Visibility: 15mi
Dew Point: 28°   Wind: 8mph
Humidity: 75%   Direction: 110°ESE
Pressure: 29.85"   Gusts: NA
Location:  52.63°N, 104.88°W
Report Text: CYPA 260500Z 11007KT 15SM BKN100 02/M02 A2985 RMK AC7 SLP125
Loading
Personal Weather Stations






























Interactive Weather Map
Tropical Storm Tracking
New forecast layout! Learn more

10-Day Weather Forecast

Advertisements
Track Severe Weather on mobile